createdAt,value
2015-02-27T00:00:01.301Z,15
2015-02-27T00:00:14.779Z,15
2015-02-27T00:00:28.124Z,15
2015-02-27T00:00:41.534Z,15
2015-02-27T00:00:55.103Z,15
2015-02-27T00:01:08.510Z,15
2015-02-27T00:01:22.039Z,15
2015-02-27T00:01:35.570Z,15
2015-02-27T00:01:48.923Z,15
2015-02-27T00:02:02.320Z,15
2015-02-27T00:02:15.822Z,15
2015-02-27T00:02:29.309Z,15
2015-02-27T00:02:42.821Z,15
2015-02-27T00:02:56.299Z,15
2015-02-27T00:03:09.762Z,15
2015-02-27T00:03:23.208Z,15
2015-02-27T00:03:36.669Z,15
2015-02-27T00:03:50.078Z,15
2015-02-27T00:04:03.557Z,15
2015-02-27T00:04:17.039Z,15
2015-02-27T00:04:30.509Z,15
2015-02-27T00:04:44.002Z,15
2015-02-27T00:04:57.586Z,15
2015-02-27T00:05:10.913Z,15
2015-02-27T00:05:24.434Z,15
2015-02-27T00:05:37.826Z,15
2015-02-27T00:05:51.342Z,15
2015-02-27T00:06:04.829Z,15
2015-02-27T00:06:18.203Z,15
2015-02-27T00:06:31.764Z,15
2015-02-27T00:06:45.249Z,15
2015-02-27T00:06:58.678Z,15
2015-02-27T00:07:12.097Z,15
2015-02-27T00:07:25.637Z,15
2015-02-27T00:07:39.077Z,15
2015-02-27T00:07:52.516Z,15
2015-02-27T00:08:05.984Z,15
2015-02-27T00:08:19.372Z,15
2015-02-27T00:08:32.912Z,15
2015-02-27T00:08:46.326Z,15
2015-02-27T00:08:59.766Z,15
2015-02-27T00:09:13.319Z,15
2015-02-27T00:09:26.651Z,15
2015-02-27T00:09:40.174Z,15
2015-02-27T00:09:53.746Z,15
2015-02-27T00:10:07.242Z,15
2015-02-27T00:10:20.695Z,15
2015-02-27T00:10:34.219Z,15
2015-02-27T00:10:47.652Z,15
2015-02-27T00:11:01.046Z,15
2015-02-27T00:11:14.554Z,15
2015-02-27T00:11:28.030Z,15
2015-02-27T00:11:42.185Z,15
2015-02-27T00:11:55.926Z,15
2015-02-27T00:12:09.403Z,15
2015-02-27T00:12:22.727Z,15
2015-02-27T00:12:36.182Z,15
2015-02-27T00:12:49.675Z,15
2015-02-27T00:13:03.100Z,15
2015-02-27T00:13:16.767Z,15
2015-02-27T00:13:30.388Z,15
2015-02-27T00:13:43.862Z,15
2015-02-27T00:13:57.238Z,15
2015-02-27T00:14:10.630Z,15
2015-02-27T00:14:24.672Z,15
2015-02-27T00:14:38.108Z,15
2015-02-27T00:14:51.445Z,15
2015-02-27T00:15:04.920Z,15
2015-02-27T00:15:18.538Z,15
2015-02-27T00:15:31.944Z,15
2015-02-27T00:15:45.338Z,15
2015-02-27T00:15:58.902Z,15
2015-02-27T00:16:12.302Z,15
2015-02-27T00:16:25.856Z,15
2015-02-27T00:16:39.421Z,15
2015-02-27T00:16:52.792Z,15
2015-02-27T00:17:06.443Z,15
2015-02-27T00:17:19.842Z,15
2015-02-27T00:17:33.305Z,15
2015-02-27T00:17:46.852Z,15
2015-02-27T00:18:00.204Z,15
2015-02-27T00:18:13.703Z,15
2015-02-27T00:18:27.328Z,15
2015-02-27T00:18:40.868Z,15
2015-02-27T00:18:54.301Z,15
2015-02-27T00:19:07.929Z,15
2015-02-27T00:19:21.570Z,15
2015-02-27T00:19:34.981Z,15
2015-02-27T00:19:48.402Z,15
2015-02-27T00:20:01.895Z,15
2015-02-27T00:20:15.534Z,15
2015-02-27T00:20:28.933Z,15
2015-02-27T00:20:42.370Z,15
2015-02-27T00:20:55.828Z,15
2015-02-27T00:21:09.268Z,15
2015-02-27T00:21:22.624Z,15
2015-02-27T00:21:36.030Z,15
2015-02-27T00:21:49.457Z,15
2015-02-27T00:22:02.794Z,15
2015-02-27T00:22:16.223Z,15
2015-02-27T00:22:29.692Z,15
2015-02-27T00:22:43.047Z,15
2015-02-27T00:22:56.460Z,15
2015-02-27T00:23:09.792Z,15
2015-02-27T00:23:23.221Z,15
2015-02-27T00:23:36.658Z,15
2015-02-27T00:23:49.999Z,15
2015-02-27T00:24:03.397Z,15
2015-02-27T00:24:16.845Z,15
2015-02-27T00:24:30.173Z,15
2015-02-27T00:24:43.542Z,15
2015-02-27T00:24:57.007Z,15
2015-02-27T00:25:10.359Z,15
2015-02-27T00:25:23.743Z,15
2015-02-27T00:25:37.172Z,15
2015-02-27T00:25:50.583Z,15
2015-02-27T00:26:04.031Z,15
2015-02-27T00:26:17.404Z,15
2015-02-27T00:26:30.819Z,15
2015-02-27T00:26:44.257Z,15
2015-02-27T00:26:57.622Z,15
2015-02-27T00:27:10.977Z,15
2015-02-27T00:27:24.436Z,15
2015-02-27T00:27:37.840Z,15
2015-02-27T00:27:51.178Z,15
2015-02-27T00:28:04.703Z,15
2015-02-27T00:28:18.126Z,15
2015-02-27T00:28:31.559Z,15
2015-02-27T00:28:44.955Z,15
2015-02-27T00:28:58.327Z,15
2015-02-27T00:29:11.764Z,15
2015-02-27T00:29:25.128Z,15
2015-02-27T00:29:38.451Z,15
2015-02-27T00:29:51.900Z,15
2015-02-27T00:30:05.300Z,15
2015-02-27T00:30:18.652Z,15
2015-02-27T00:30:32.075Z,15
2015-02-27T00:30:45.515Z,15
2015-02-27T00:30:58.871Z,15
2015-02-27T00:31:12.281Z,15
2015-02-27T00:31:25.674Z,15
2015-02-27T00:31:39.138Z,15
2015-02-27T00:31:52.545Z,15
2015-02-27T00:32:05.855Z,15
2015-02-27T00:32:19.285Z,15
2015-02-27T00:32:32.715Z,15
2015-02-27T00:32:46.031Z,15
2015-02-27T00:32:59.436Z,15
2015-02-27T00:33:12.859Z,15
2015-02-27T00:33:26.175Z,15
2015-02-27T00:33:39.554Z,15
2015-02-27T00:33:53.020Z,15
2015-02-27T00:34:06.399Z,15
2015-02-27T00:34:19.778Z,15
2015-02-27T00:34:33.163Z,15
2015-02-27T00:34:46.524Z,15
2015-02-27T00:34:59.847Z,15
2015-02-27T00:35:13.288Z,15
2015-02-27T00:35:26.685Z,15
2015-02-27T00:35:39.996Z,15
2015-02-27T00:35:53.460Z,15
2015-02-27T00:36:06.884Z,15
2015-02-27T00:36:20.266Z,15
2015-02-27T00:36:33.694Z,15
2015-02-27T00:36:47.157Z,15
2015-02-27T00:37:00.557Z,15
2015-02-27T00:37:14.092Z,15
2015-02-27T00:37:27.410Z,15
2015-02-27T00:37:40.825Z,15
2015-02-27T00:37:54.253Z,15
2015-02-27T00:38:07.563Z,15
2015-02-27T00:38:20.974Z,15
2015-02-27T00:38:34.418Z,15
2015-02-27T00:38:47.762Z,15
2015-02-27T00:39:01.146Z,15
2015-02-27T00:39:14.602Z,15
2015-02-27T00:39:27.971Z,15
2015-02-27T00:39:41.363Z,15
2015-02-27T00:39:54.833Z,15
2015-02-27T00:40:08.273Z,15
2015-02-27T00:40:21.749Z,15
2015-02-27T00:40:35.101Z,15
2015-02-27T00:40:48.522Z,15
2015-02-27T00:41:01.992Z,15
2015-02-27T00:41:15.349Z,15
2015-02-27T00:41:28.687Z,15
2015-02-27T00:41:42.759Z,15
2015-02-27T00:41:56.126Z,15
2015-02-27T00:42:09.491Z,15
2015-02-27T00:42:22.970Z,15
2015-02-27T00:42:36.394Z,15
2015-02-27T00:42:49.865Z,15
2015-02-27T00:43:03.343Z,15
2015-02-27T00:43:16.834Z,15
2015-02-27T00:43:30.383Z,15
2015-02-27T00:43:43.792Z,15
2015-02-27T00:43:57.129Z,15
2015-02-27T00:44:10.611Z,15
2015-02-27T00:44:24.028Z,15
2015-02-27T00:44:37.353Z,15
2015-02-27T00:44:50.801Z,15
2015-02-27T00:45:04.258Z,15
2015-02-27T00:45:17.592Z,15
2015-02-27T00:45:31.006Z,15
2015-02-27T00:45:44.380Z,15
2015-02-27T00:45:57.893Z,15
2015-02-27T00:46:11.296Z,15
2015-02-27T00:46:24.669Z,15
2015-02-27T00:46:38.098Z,15
2015-02-27T00:46:51.536Z,15
2015-02-27T00:47:04.899Z,15
2015-02-27T00:47:18.300Z,15
2015-02-27T00:47:31.779Z,15
2015-02-27T00:47:45.122Z,15
2015-02-27T00:47:58.492Z,15
2015-02-27T00:48:11.940Z,15
2015-02-27T00:48:25.312Z,15
2015-02-27T00:48:38.762Z,15
2015-02-27T00:48:52.145Z,15
2015-02-27T00:49:05.572Z,15
2015-02-27T00:49:19.074Z,15
2015-02-27T00:49:32.447Z,15
2015-02-27T00:49:45.823Z,15
2015-02-27T00:49:59.273Z,15
2015-02-27T00:50:12.627Z,15
2015-02-27T00:50:25.995Z,15
2015-02-27T00:50:39.434Z,15
2015-02-27T00:50:52.811Z,15
2015-02-27T00:51:06.135Z,15
2015-02-27T00:51:19.583Z,15
2015-02-27T00:51:32.970Z,15
2015-02-27T00:51:46.463Z,15
2015-02-27T00:51:59.851Z,15
2015-02-27T00:52:13.249Z,15
2015-02-27T00:52:26.762Z,15
2015-02-27T00:52:40.150Z,15
2015-02-27T00:52:53.520Z,15
2015-02-27T00:53:06.983Z,15
2015-02-27T00:53:20.383Z,15
2015-02-27T00:53:33.738Z,15
2015-02-27T00:53:47.166Z,15
2015-02-27T00:54:00.627Z,15
2015-02-27T00:54:14.025Z,15
2015-02-27T00:54:27.434Z,15
2015-02-27T00:54:40.767Z,15
2015-02-27T00:54:54.270Z,15
2015-02-27T00:55:07.709Z,15
2015-02-27T00:55:21.062Z,15
2015-02-27T00:55:34.491Z,15
2015-02-27T00:55:47.922Z,15
2015-02-27T00:56:01.269Z,15
2015-02-27T00:56:14.679Z,15
2015-02-27T00:56:28.174Z,15
2015-02-27T00:56:41.529Z,15
2015-02-27T00:56:54.918Z,15
2015-02-27T00:57:08.391Z,15
2015-02-27T00:57:21.764Z,15
2015-02-27T00:57:35.200Z,15
2015-02-27T00:57:48.684Z,15
2015-02-27T00:58:02.085Z,15
2015-02-27T00:58:15.447Z,15
2015-02-27T00:58:28.916Z,15
2015-02-27T00:58:42.323Z,15
2015-02-27T00:58:55.670Z,15
2015-02-27T00:59:09.116Z,15
2015-02-27T00:59:22.538Z,15
2015-02-27T00:59:35.882Z,15
2015-02-27T00:59:49.299Z,15
2015-02-27T01:00:02.652Z,15
2015-02-27T01:00:16.122Z,15
2015-02-27T01:00:29.550Z,15
2015-02-27T01:00:42.904Z,15
2015-02-27T01:00:56.369Z,15
2015-02-27T01:01:09.809Z,15
2015-02-27T01:01:23.144Z,15
2015-02-27T01:01:36.577Z,15
2015-02-27T01:01:50.029Z,15
2015-02-27T01:02:03.360Z,15
2015-02-27T01:02:16.755Z,15
2015-02-27T01:02:30.224Z,15
2015-02-27T01:02:43.585Z,15
2015-02-27T01:02:57.042Z,15
2015-02-27T01:03:10.423Z,15
2015-02-27T01:03:23.840Z,15
2015-02-27T01:03:37.349Z,15
2015-02-27T01:03:50.696Z,15
2015-02-27T01:04:04.081Z,15
2015-02-27T01:04:17.538Z,15
2015-02-27T01:04:30.891Z,15
2015-02-27T01:04:44.255Z,15
2015-02-27T01:04:57.731Z,15
2015-02-27T01:05:11.090Z,15
2015-02-27T01:05:24.421Z,15
2015-02-27T01:05:37.853Z,15
2015-02-27T01:05:51.251Z,15
2015-02-27T01:06:04.704Z,15
2015-02-27T01:06:18.086Z,15
2015-02-27T01:06:31.493Z,15
2015-02-27T01:06:44.975Z,15
2015-02-27T01:06:58.390Z,15
2015-02-27T01:07:11.704Z,15
2015-02-27T01:07:25.179Z,15
2015-02-27T01:07:38.567Z,15
2015-02-27T01:07:52.290Z,15
2015-02-27T01:08:05.884Z,15
2015-02-27T01:08:19.614Z,15
2015-02-27T01:08:33.596Z,15
2015-02-27T01:08:47.724Z,15
2015-02-27T01:09:01.733Z,15
2015-02-27T01:09:15.194Z,15
2015-02-27T01:09:28.647Z,15
2015-02-27T01:09:42.004Z,15
2015-02-27T01:09:55.450Z,15
2015-02-27T01:10:08.852Z,15
2015-02-27T01:10:22.161Z,15
2015-02-27T01:10:35.551Z,15
2015-02-27T01:10:48.999Z,15
2015-02-27T01:11:02.314Z,15
2015-02-27T01:11:15.674Z,15
2015-02-27T01:11:29.078Z,15
2015-02-27T01:11:42.914Z,15
2015-02-27T01:11:56.357Z,15
2015-02-27T01:12:09.694Z,15
2015-02-27T01:12:23.127Z,15
2015-02-27T01:12:36.608Z,15
2015-02-27T01:12:49.965Z,15
2015-02-27T01:13:03.368Z,15
2015-02-27T01:13:16.883Z,15
2015-02-27T01:13:30.237Z,15
2015-02-27T01:13:43.588Z,15
2015-02-27T01:13:57.057Z,15
2015-02-27T01:14:10.427Z,15
2015-02-27T01:14:23.849Z,15
2015-02-27T01:14:37.179Z,15
2015-02-27T01:14:50.581Z,15
2015-02-27T01:15:04.042Z,15
2015-02-27T01:15:17.426Z,15
2015-02-27T01:15:30.788Z,15
2015-02-27T01:15:44.274Z,15
2015-02-27T01:15:57.693Z,15
2015-02-27T01:16:11.053Z,15
2015-02-27T01:16:24.508Z,15
2015-02-27T01:16:37.909Z,15
2015-02-27T01:16:51.249Z,15
2015-02-27T01:17:04.661Z,15
2015-02-27T01:17:18.024Z,15
2015-02-27T01:17:31.453Z,15
2015-02-27T01:17:44.836Z,15
2015-02-27T01:17:58.181Z,15
2015-02-27T01:18:11.633Z,15
2015-02-27T01:18:25.046Z,15
2015-02-27T01:18:38.412Z,15
2015-02-27T01:18:51.849Z,15
2015-02-27T01:19:05.301Z,15
2015-02-27T01:19:18.641Z,15
2015-02-27T01:19:32.036Z,15
2015-02-27T01:19:45.496Z,15
2015-02-27T01:19:58.850Z,15
2015-02-27T01:20:12.236Z,15
2015-02-27T01:20:25.690Z,15
2015-02-27T01:20:39.045Z,15
2015-02-27T01:20:52.377Z,15
2015-02-27T01:21:05.805Z,15
2015-02-27T01:21:19.202Z,15
2015-02-27T01:21:32.553Z,15
2015-02-27T01:21:46.057Z,15
2015-02-27T01:21:59.472Z,15
2015-02-27T01:22:12.805Z,15
2015-02-27T01:22:26.224Z,15
2015-02-27T01:22:39.650Z,15
2015-02-27T01:22:53.032Z,15
2015-02-27T01:23:06.391Z,15
2015-02-27T01:23:19.716Z,15
2015-02-27T01:23:33.146Z,15
2015-02-27T01:23:46.556Z,15
2015-02-27T01:23:59.883Z,15
2015-02-27T01:24:13.315Z,15
2015-02-27T01:24:26.737Z,15
2015-02-27T01:24:40.087Z,15
2015-02-27T01:24:53.539Z,15
2015-02-27T01:25:07.042Z,15
2015-02-27T01:25:20.428Z,15
2015-02-27T01:25:33.785Z,15
2015-02-27T01:25:47.156Z,15
2015-02-27T01:26:00.571Z,15
2015-02-27T01:26:13.981Z,15
2015-02-27T01:26:27.292Z,15
2015-02-27T01:26:40.676Z,15
2015-02-27T01:26:54.114Z,15
2015-02-27T01:27:07.471Z,15
2015-02-27T01:27:20.868Z,15
2015-02-27T01:27:34.336Z,15
2015-02-27T01:27:47.689Z,15
2015-02-27T01:28:01.034Z,15
2015-02-27T01:28:14.473Z,15
2015-02-27T01:28:27.839Z,15
2015-02-27T01:28:41.271Z,15
2015-02-27T01:28:54.615Z,15
2015-02-27T01:29:08.035Z,15
2015-02-27T01:29:21.571Z,15
2015-02-27T01:29:34.948Z,15
2015-02-27T01:29:48.316Z,15
2015-02-27T01:30:01.784Z,15
2015-02-27T01:30:15.198Z,15
2015-02-27T01:30:28.519Z,15
2015-02-27T01:30:41.965Z,15
2015-02-27T01:30:55.355Z,15
2015-02-27T01:31:08.665Z,15
2015-02-27T01:31:22.075Z,15
2015-02-27T01:31:35.431Z,15
2015-02-27T01:31:48.867Z,15
2015-02-27T01:32:02.225Z,15
2015-02-27T01:32:15.545Z,15
2015-02-27T01:32:29.013Z,15
2015-02-27T01:32:42.400Z,15
2015-02-27T01:32:55.759Z,15
2015-02-27T01:33:09.209Z,15
2015-02-27T01:33:22.651Z,15
2015-02-27T01:33:35.989Z,15
2015-02-27T01:33:49.383Z,15
2015-02-27T01:34:02.828Z,15
2015-02-27T01:34:16.158Z,15
2015-02-27T01:34:29.535Z,15
2015-02-27T01:34:42.864Z,15
2015-02-27T01:34:56.292Z,15
2015-02-27T01:35:09.716Z,15
2015-02-27T01:35:23.041Z,15
2015-02-27T01:35:36.483Z,15
2015-02-27T01:35:49.933Z,15
2015-02-27T01:36:03.289Z,15
2015-02-27T01:36:16.690Z,15
2015-02-27T01:36:30.130Z,15
2015-02-27T01:36:43.489Z,15
2015-02-27T01:36:56.833Z,15
2015-02-27T01:37:10.233Z,15
2015-02-27T01:37:23.604Z,15
2015-02-27T01:37:37.031Z,15
2015-02-27T01:37:50.348Z,15
2015-02-27T01:38:03.714Z,15
2015-02-27T01:38:17.170Z,15
2015-02-27T01:38:30.539Z,15
2015-02-27T01:38:43.900Z,15
2015-02-27T01:38:57.399Z,15
2015-02-27T01:39:10.787Z,15
2015-02-27T01:39:24.125Z,15
2015-02-27T01:39:37.585Z,15
2015-02-27T01:39:50.989Z,15
2015-02-27T01:40:04.385Z,15
2015-02-27T01:40:17.738Z,15
2015-02-27T01:40:31.114Z,15
2015-02-27T01:40:44.583Z,15
2015-02-27T01:40:57.970Z,15
2015-02-27T01:41:11.301Z,15
2015-02-27T01:41:24.779Z,15
2015-02-27T01:41:39.202Z,15
2015-02-27T01:41:52.541Z,15
2015-02-27T01:42:06.005Z,15
2015-02-27T01:42:19.460Z,15
2015-02-27T01:42:32.794Z,15
2015-02-27T05:55:18.850Z,508
2015-02-27T05:55:36.265Z,518
2015-02-27T05:55:53.986Z,527
2015-02-27T05:56:11.488Z,527
2015-02-27T05:56:32.578Z,535
2015-02-27T05:56:46.988Z,572
2015-02-27T05:57:02.595Z,637
2015-02-27T05:57:16.489Z,624
2015-02-27T05:57:31.012Z,663
2015-02-27T05:57:45.834Z,673
2015-02-27T05:57:59.520Z,690
2015-02-27T05:58:14.029Z,699
2015-02-27T05:58:28.039Z,733
2015-02-27T05:58:42.824Z,725
2015-02-27T05:58:56.902Z,751
2015-02-27T05:59:11.418Z,778
2015-02-27T05:59:25.136Z,804
2015-02-27T05:59:38.956Z,838
2015-02-27T06:00:00.624Z,864
2015-02-27T06:00:14.819Z,873
2015-02-27T06:00:28.823Z,890
2015-02-27T06:00:46.230Z,900
2015-02-27T06:01:00.728Z,934
2015-02-27T06:01:14.263Z,960
2015-02-27T06:01:27.681Z,952
2015-02-27T06:01:41.221Z,978
2015-02-27T06:01:54.830Z,1012
2015-02-27T06:02:08.328Z,1004
2015-02-27T06:02:21.855Z,1039
2015-02-27T06:02:35.413Z,1048
2015-02-27T06:02:48.847Z,1057
2015-02-27T06:03:02.386Z,1091
2015-02-27T06:03:15.917Z,1100
2015-02-27T06:03:29.484Z,1109
2015-02-27T06:03:43.061Z,1144
2015-02-27T06:03:56.548Z,1153
2015-02-27T06:04:10.094Z,1162
2015-02-27T06:04:23.706Z,1213
2015-02-27T06:04:37.159Z,1222
2015-02-27T06:04:50.688Z,1231
2015-02-27T06:05:04.297Z,1265
2015-02-27T06:05:17.779Z,1275
2015-02-27T06:05:31.256Z,1284
2015-02-27T06:05:44.852Z,1318
2015-02-27T06:05:58.358Z,1327
2015-02-27T06:06:11.900Z,1336
2015-02-27T06:06:25.417Z,1387
2015-02-27T06:06:38.917Z,1397
2015-02-27T06:06:52.540Z,1406
2015-02-27T06:07:06.039Z,1440
2015-02-27T06:07:19.516Z,1449
2015-02-27T06:07:33.130Z,1475
2015-02-27T06:07:46.630Z,1492
2015-02-27T06:08:00.079Z,1519
2015-02-27T06:08:13.665Z,1528
2015-02-27T06:08:27.183Z,1554
2015-02-27T06:08:40.634Z,1571
2015-02-27T06:08:54.189Z,1597
2015-02-27T06:09:07.742Z,1607
2015-02-27T06:09:21.245Z,1633
2015-02-27T06:09:34.814Z,1667
2015-02-27T06:09:48.434Z,1693
2015-02-27T06:10:01.920Z,1710
2015-02-27T06:10:15.462Z,1719
2015-02-27T06:10:29.052Z,1763
2015-02-27T06:10:42.533Z,1772
2015-02-27T06:10:56.093Z,1798
2015-02-27T06:11:09.693Z,1832
2015-02-27T06:11:23.139Z,1858
2015-02-27T06:11:36.648Z,1868
2015-02-27T06:11:50.229Z,1877
2015-02-27T06:12:03.792Z,1928
2015-02-27T06:12:17.417Z,1937
2015-02-27T06:12:30.899Z,1963
2015-02-27T06:12:44.377Z,1973
2015-02-27T06:12:57.952Z,2024
2015-02-27T06:13:11.479Z,2033
2015-02-27T06:13:24.906Z,2059
2015-02-27T06:13:38.508Z,2068
2015-02-27T06:13:52.022Z,2095
2015-02-27T06:14:05.517Z,2146
2015-02-27T06:14:19.076Z,2155
2015-02-27T06:14:32.658Z,2181
2015-02-27T06:14:46.182Z,2190
2015-02-27T06:14:59.710Z,2217
2015-02-27T06:15:13.192Z,2251
2015-02-27T06:15:26.783Z,2277
2015-02-27T06:15:40.311Z,2303
2015-02-27T06:15:53.755Z,2312
2015-02-27T06:16:07.323Z,2338
2015-02-27T06:16:20.924Z,2365
2015-02-27T06:16:34.377Z,2374
2015-02-27T06:16:47.929Z,2425
2015-02-27T06:17:01.510Z,2451
2015-02-27T06:17:14.959Z,2478
2015-02-27T06:17:28.499Z,2487
2015-02-27T06:17:42.037Z,2513
2015-02-27T06:17:55.643Z,2539
2015-02-27T06:18:09.204Z,2548
2015-02-27T06:18:22.647Z,2575
2015-02-27T06:18:36.173Z,2626
2015-02-27T06:18:49.771Z,2635
2015-02-27T06:19:03.238Z,2661
2015-02-27T06:19:16.759Z,2687
2015-02-27T06:19:30.350Z,2714
2015-02-27T06:19:44.022Z,2723
2015-02-27T06:19:57.497Z,2774
2015-02-27T06:20:11.103Z,2800
2015-02-27T06:20:24.629Z,2826
2015-02-27T06:20:38.133Z,2853
2015-02-27T06:20:51.757Z,2862
2015-02-27T06:21:05.480Z,2888
2015-02-27T06:21:18.932Z,2914
2015-02-27T06:21:32.608Z,2941
2015-02-27T06:21:46.187Z,2967
2015-02-27T06:21:59.619Z,2993
2015-02-27T06:22:13.172Z,3002
2015-02-27T06:22:26.811Z,3029
2015-02-27T06:22:40.251Z,3055
2015-02-27T06:22:53.735Z,3106
2015-02-27T06:23:07.347Z,3132
2015-02-27T06:23:20.817Z,3158
2015-02-27T06:23:34.423Z,3185
2015-02-27T06:23:47.911Z,3211
2015-02-27T06:24:01.438Z,3220
2015-02-27T06:24:15.045Z,3246
2015-02-27T06:24:28.496Z,3273
2015-02-27T06:24:42.013Z,3299
2015-02-27T06:24:55.627Z,3325
2015-02-27T06:25:09.133Z,3351
2015-02-27T06:25:22.623Z,3378
2015-02-27T06:25:36.220Z,3421
2015-02-27T06:25:49.753Z,3438
2015-02-27T06:26:03.259Z,3438
2015-02-27T06:26:16.857Z,3464
2015-02-27T06:26:30.365Z,3516
2015-02-27T06:26:44.201Z,3526
2015-02-27T06:26:57.913Z,3552
2015-02-27T06:27:11.732Z,3578
2015-02-27T06:27:25.683Z,3604
2015-02-27T06:27:39.395Z,3638
2015-02-27T06:27:53.550Z,3665
2015-02-27T06:28:07.396Z,3683
2015-02-27T06:28:20.921Z,3700
2015-02-27T06:28:34.391Z,3709
2015-02-27T06:28:47.963Z,3770
2015-02-27T06:29:01.544Z,3796
2015-02-27T06:29:15.080Z,3822
2015-02-27T06:29:28.576Z,3848
2015-02-27T06:29:42.010Z,3858
2015-02-27T06:29:55.599Z,3884
2015-02-27T06:30:09.111Z,3910
2015-02-27T06:30:22.564Z,3936
2015-02-27T06:30:36.098Z,3987
2015-02-27T06:30:49.755Z,3997
2015-02-27T06:31:03.167Z,4023
2015-02-27T06:31:16.707Z,4049
2015-02-27T06:31:30.281Z,4075
2015-02-27T06:31:43.784Z,4085
2015-02-27T06:31:57.336Z,4136
2015-02-27T06:32:10.968Z,4145
2015-02-27T06:32:24.438Z,4171
2015-02-27T06:32:37.861Z,4197
2015-02-27T06:32:51.491Z,4207
2015-02-27T06:33:05.020Z,4199
2015-02-27T06:33:18.500Z,4276
2015-02-27T06:33:32.068Z,4302
2015-02-27T06:33:45.604Z,4312
2015-02-27T06:33:59.053Z,4321
2015-02-27T06:34:12.628Z,4372
2015-02-27T06:34:26.188Z,4398
2015-02-27T06:34:39.652Z,4407
2015-02-27T06:34:53.190Z,4432
2015-02-27T06:35:06.639Z,4443
2015-02-27T06:35:20.227Z,4494
2015-02-27T06:35:33.739Z,4520
2015-02-27T06:35:47.196Z,4529
2015-02-27T06:36:00.776Z,4538
2015-02-27T06:36:14.325Z,4563
2015-02-27T06:36:27.739Z,4599
2015-02-27T06:36:41.260Z,4616
2015-02-27T06:36:54.858Z,4625
2015-02-27T06:37:08.314Z,4685
2015-02-27T06:37:21.837Z,4480
2015-02-27T06:37:35.464Z,4713
2015-02-27T06:37:48.974Z,4781
2015-02-27T06:38:02.538Z,4807
2015-02-27T06:38:15.993Z,4816
2015-02-27T06:38:29.555Z,4843
2015-02-27T06:38:43.200Z,4869
2015-02-27T06:38:56.698Z,4852
2015-02-27T06:39:10.258Z,4904
2015-02-27T06:39:23.900Z,4938
2015-02-27T06:39:37.423Z,4965
2015-02-27T06:39:51.059Z,4991
2015-02-27T06:40:04.749Z,4878
2015-02-27T06:40:19.155Z,4897
2015-02-27T06:40:33.273Z,4932
2015-02-27T06:40:46.890Z,4957
2015-02-27T06:41:00.380Z,5105
2015-02-27T06:41:13.956Z,5114
2015-02-27T06:41:27.420Z,5165
2015-02-27T06:41:41.034Z,5175
2015-02-27T06:41:54.722Z,5201
2015-02-27T06:42:08.271Z,5227
2015-02-27T06:42:21.679Z,5236
2015-02-27T06:42:35.290Z,4985
2015-02-27T06:42:48.845Z,5088
2015-02-27T06:43:02.842Z,5158
2015-02-27T06:43:16.654Z,5131
2015-02-27T06:43:32.432Z,5175
2015-02-27T06:43:46.816Z,5150
2015-02-27T06:44:00.336Z,5176
2015-02-27T06:44:14.267Z,5227
2015-02-27T06:44:28.090Z,5020
2015-02-27T06:44:49.378Z,5099
2015-02-27T06:45:02.950Z,5290
2015-02-27T06:45:16.536Z,5244
2015-02-27T06:45:30.076Z,5351
2015-02-27T06:45:44.245Z,5334
2015-02-27T06:45:57.981Z,5403
2015-02-27T06:46:11.695Z,5170
2015-02-27T06:46:26.340Z,5630
2015-02-27T06:46:39.875Z,5673
2015-02-27T06:46:53.501Z,5675
2015-02-27T06:47:07.286Z,5701
2015-02-27T06:47:21.114Z,5701
2015-02-27T06:47:35.189Z,5761
2015-02-27T06:47:48.741Z,5770
2015-02-27T06:48:02.797Z,5780
2015-02-27T06:48:16.244Z,5806
2015-02-27T06:48:30.203Z,5832
2015-02-27T06:48:43.785Z,5858
2015-02-27T06:48:57.389Z,5790
2015-02-27T06:49:10.889Z,5894
2015-02-27T06:49:24.918Z,5920
2015-02-27T06:49:38.478Z,5929
2015-02-27T06:49:52.498Z,5956
2015-02-27T06:50:05.942Z,5990
2015-02-27T06:50:19.736Z,5999
2015-02-27T06:50:33.313Z,6025
2015-02-27T06:50:47.184Z,6034
2015-02-27T06:51:00.683Z,6060
2015-02-27T06:51:15.103Z,6087
2015-02-27T06:51:28.609Z,6113
2015-02-27T06:51:42.605Z,6122
2015-02-27T06:51:56.225Z,6148
2015-02-27T06:52:09.936Z,6183
2015-02-27T06:52:23.425Z,6192
2015-02-27T06:52:37.497Z,6201
2015-02-27T06:52:50.969Z,6227
2015-02-27T06:53:04.588Z,6236
2015-02-27T06:53:18.237Z,6263
2015-02-27T06:53:31.721Z,6289
2015-02-27T06:53:45.736Z,6315
2015-02-27T06:53:59.607Z,6324
2015-02-27T06:54:13.081Z,6351
2015-02-27T06:54:26.951Z,6377
2015-02-27T06:54:40.563Z,6403
2015-02-27T06:54:55.145Z,6429
2015-02-27T06:55:08.731Z,6439
2015-02-27T06:55:22.372Z,6465
2015-02-27T06:55:35.879Z,6474
2015-02-27T06:55:49.412Z,6483
2015-02-27T06:56:03.057Z,6493
2015-02-27T06:56:16.522Z,6519
2015-02-27T06:56:30.012Z,6553
2015-02-27T06:56:43.616Z,6579
2015-02-27T06:56:57.138Z,6605
2015-02-27T06:57:10.613Z,6607
2015-02-27T06:57:24.214Z,6616
2015-02-27T06:57:37.806Z,6667
2015-02-27T06:57:51.282Z,6676
2015-02-27T06:58:04.918Z,6702
2015-02-27T06:58:18.504Z,6712
2015-02-27T06:58:32.046Z,6738
2015-02-27T06:58:45.543Z,6747
2015-02-27T06:58:58.999Z,6773
2015-02-27T06:59:12.660Z,6800
2015-02-27T06:59:26.209Z,6826
2015-02-27T06:59:39.644Z,6835
2015-02-27T06:59:53.208Z,6844
2015-02-27T07:00:06.789Z,6871
2015-02-27T07:00:20.229Z,6880
2015-02-27T07:00:33.756Z,6889
2015-02-27T07:00:47.398Z,6898
2015-02-27T07:01:00.875Z,6932
2015-02-27T07:01:14.389Z,6942
2015-02-27T07:01:27.915Z,6968
2015-02-27T07:01:41.480Z,6977
2015-02-27T07:01:55.035Z,7003
2015-02-27T07:02:08.516Z,7020
2015-02-27T07:02:22.056Z,7030
2015-02-27T07:02:35.652Z,7056
2015-02-27T07:02:49.110Z,7065
2015-02-27T07:03:02.630Z,7099
2015-02-27T07:03:16.232Z,7108
2015-02-27T07:03:29.701Z,7134
2015-02-27T07:03:43.181Z,7144
2015-02-27T07:03:56.812Z,7099
2015-02-27T07:04:10.327Z,7170
2015-02-27T07:04:23.922Z,7179
2015-02-27T07:04:37.384Z,7188
2015-02-27T07:04:50.900Z,7205
2015-02-27T07:05:04.480Z,7232
2015-02-27T07:05:17.937Z,7241
2015-02-27T07:05:31.420Z,7250
2015-02-27T07:05:45.001Z,7259
2015-02-27T07:05:58.493Z,7269
2015-02-27T07:06:11.936Z,7303
2015-02-27T07:06:25.583Z,7312
2015-02-27T07:06:39.126Z,7321
2015-02-27T07:06:52.589Z,7347
2015-02-27T07:07:06.167Z,7357
2015-02-27T07:07:19.606Z,7375
2015-02-27T07:07:33.173Z,7409
2015-02-27T07:07:46.691Z,7418
2015-02-27T07:08:00.129Z,7411
2015-02-27T07:08:13.701Z,7437
2015-02-27T07:08:27.250Z,7446
2015-02-27T07:08:40.676Z,7472
2015-02-27T07:08:54.246Z,7499
2015-02-27T07:09:07.826Z,7508
2015-02-27T07:09:21.305Z,7517
2015-02-27T07:09:34.884Z,7543
2015-02-27T07:09:48.472Z,7569
2015-02-27T07:10:02.525Z,7554
2015-02-27T07:10:16.040Z,7580
2015-02-27T07:10:29.478Z,7589
2015-02-27T07:10:43.061Z,7616
2015-02-27T07:10:56.657Z,7600
2015-02-27T07:11:10.101Z,7626
2015-02-27T07:11:23.655Z,7653
2015-02-27T07:11:37.309Z,7679
2015-02-27T07:11:50.831Z,7680
2015-02-27T07:12:04.381Z,7707
2015-02-27T07:12:18.016Z,7716
2015-02-27T07:12:31.513Z,7734
2015-02-27T07:12:45.053Z,7785
2015-02-27T07:12:58.634Z,7779
2015-02-27T07:13:12.180Z,7788
2015-02-27T07:13:25.787Z,7807
2015-02-27T07:13:39.251Z,7825
2015-02-27T07:13:52.771Z,7871
2015-02-27T07:14:07.455Z,7846
2015-02-27T07:14:20.957Z,7840
2015-02-27T07:14:34.476Z,7893
2015-02-27T07:14:48.090Z,7930
2015-02-27T07:15:01.605Z,7959
2015-02-27T07:15:15.076Z,8005
2015-02-27T07:15:28.687Z,8026
2015-02-27T07:15:42.209Z,8072
2015-02-27T07:15:55.759Z,8126
2015-02-27T07:16:09.370Z,8190
2015-02-27T07:16:22.922Z,8200
2015-02-27T07:16:36.505Z,8228
2015-02-27T07:16:50.004Z,8254
2015-02-27T07:17:03.467Z,8290
2015-02-27T07:17:17.056Z,8282
2015-02-27T07:17:30.593Z,8316
2015-02-27T07:17:44.065Z,8342
2015-02-27T07:17:57.692Z,8368
2015-02-27T07:18:11.308Z,8387
2015-02-27T07:18:24.774Z,8396
2015-02-27T07:18:38.308Z,8424
2015-02-27T07:18:51.906Z,8469
2015-02-27T07:19:05.362Z,8487
2015-02-27T07:19:18.855Z,8541
2015-02-27T07:19:32.446Z,8552
2015-02-27T07:19:45.901Z,8589
2015-02-27T07:19:59.390Z,8618